createdAt,value
2017-07-30T00:00:19.296Z,80.0
2017-07-30T00:01:20.033Z,80.2
2017-07-30T00:02:21.022Z,79.7
2017-07-30T00:03:21.766Z,80.5
2017-07-30T00:04:22.510Z,80.0
2017-07-30T00:05:23.255Z,79.6
2017-07-30T00:06:24.050Z,79.7
2017-07-30T00:07:25.087Z,79.3
2017-07-30T00:08:25.916Z,79.2
2017-07-30T00:09:26.655Z,78.5
2017-07-30T00:10:27.391Z,79.3
2017-07-30T00:11:28.125Z,79.9
2017-07-30T00:12:29.229Z,79.3
2017-07-30T00:13:30.024Z,79.3
2017-07-30T00:14:30.821Z,78.7
2017-07-30T00:15:31.622Z,78.9
2017-07-30T00:16:32.354Z,79.2
2017-07-30T00:17:33.443Z,79.2
2017-07-30T00:18:34.258Z,79.3
2017-07-30T00:19:35.000Z,78.5
2017-07-30T00:20:35.740Z,78.7
2017-07-30T00:21:36.470Z,79.1
2017-07-30T00:22:37.640Z,79.4
2017-07-30T00:23:38.380Z,79.4
2017-07-30T00:24:39.190Z,78.7
2017-07-30T00:25:39.930Z,79.0
2017-07-30T00:26:40.750Z,79.0
2017-07-30T00:27:41.840Z,78.8
2017-07-30T00:28:42.580Z,79.3
2017-07-30T00:29:43.321Z,79.7
2017-07-30T00:30:44.061Z,79.2
2017-07-30T00:31:44.800Z,79.4
2017-07-30T00:32:45.950Z,79.7
2017-07-30T00:33:46.687Z,79.5
2017-07-30T00:34:47.424Z,80.2
2017-07-30T00:35:48.252Z,79.9
2017-07-30T00:36:49.082Z,80.9
2017-07-30T00:37:49.884Z,80.0
2017-07-30T00:38:50.940Z,79.8
2017-07-30T00:39:51.682Z,80.8
2017-07-30T00:40:52.422Z,79.1
2017-07-30T00:41:53.162Z,78.4
2017-07-30T00:42:53.905Z,78.2
2017-07-30T00:43:54.990Z,78.7
2017-07-30T00:44:55.740Z,79.3
2017-07-30T00:45:56.478Z,78.9
2017-07-30T00:46:57.220Z,78.4
2017-07-30T00:47:57.971Z,79.9
2017-07-30T00:48:59.069Z,79.1
2017-07-30T00:49:59.850Z,79.3
2017-07-30T00:51:00.601Z,79.9
2017-07-30T00:52:01.442Z,79.8
2017-07-30T00:53:02.226Z,79.3
2017-07-30T00:54:03.460Z,79.1
2017-07-30T00:55:04.278Z,79.5
2017-07-30T00:56:05.014Z,79.3
2017-07-30T00:57:05.765Z,79.9
2017-07-30T00:58:06.521Z,80.0
2017-07-30T00:59:08.020Z,79.5
2017-07-30T01:00:09.776Z,79.4
2017-07-30T01:01:10.942Z,79.5
2017-07-30T01:02:12.811Z,79.4
2017-07-30T01:03:14.873Z,79.9
2017-07-30T01:04:17.618Z,79.0
2017-07-30T01:05:18.766Z,79.1
2017-07-30T01:06:19.583Z,79.3
2017-07-30T01:07:20.382Z,79.4
2017-07-30T01:08:21.188Z,79.8
2017-07-30T01:09:22.180Z,78.6
2017-07-30T01:10:23.025Z,79.6
2017-07-30T01:11:23.854Z,80.6
2017-07-30T01:12:24.687Z,80.7
2017-07-30T01:13:25.495Z,80.6
2017-07-30T01:14:26.558Z,80.9
2017-07-30T01:15:27.307Z,79.7
2017-07-30T01:16:28.036Z,79.5
2017-07-30T01:17:28.869Z,79.9
2017-07-30T01:18:29.694Z,79.5
2017-07-30T01:19:30.842Z,79.1
2017-07-30T01:20:31.648Z,78.5
2017-07-30T01:21:32.461Z,78.3
2017-07-30T01:22:33.240Z,78.7
2017-07-30T01:23:33.980Z,78.8
2017-07-30T01:24:34.928Z,78.4
2017-07-30T01:25:35.660Z,78.5
2017-07-30T01:26:36.490Z,79.0
2017-07-30T01:27:37.228Z,78.1
2017-07-30T01:28:37.970Z,78.1
2017-07-30T01:29:39.060Z,79.0
2017-07-30T01:30:39.799Z,78.8
2017-07-30T01:31:40.540Z,78.7
2017-07-30T01:32:41.285Z,78.9
2017-07-30T01:33:42.109Z,78.8
2017-07-30T01:34:42.908Z,78.6
2017-07-30T01:35:43.640Z,79.2
2017-07-30T01:36:44.377Z,78.7
2017-07-30T01:37:45.121Z,79.1
2017-07-30T01:38:45.883Z,79.2
2017-07-30T01:39:47.014Z,79.5
2017-07-30T01:40:47.750Z,79.6
2017-07-30T01:41:48.490Z,77.8
2017-07-30T01:42:49.229Z,77.7
2017-07-30T01:43:49.971Z,77.1
2017-07-30T01:44:51.010Z,77.7
2017-07-30T01:45:51.744Z,78.2
2017-07-30T01:46:52.566Z,78.4
2017-07-30T01:47:53.315Z,78.8
2017-07-30T01:48:54.126Z,79.2
2017-07-30T01:49:55.213Z,79.3
2017-07-30T01:50:56.029Z,78.7
2017-07-30T01:51:56.838Z,78.2
2017-07-30T01:52:57.587Z,78.1
2017-07-30T01:53:58.330Z,78.2
2017-07-30T01:54:59.368Z,78.1
2017-07-30T01:56:00.121Z,78.6
2017-07-30T01:57:00.942Z,78.4
2017-07-30T01:58:01.681Z,78.7
2017-07-30T01:59:02.415Z,78.9
2017-07-30T02:00:03.451Z,78.7
2017-07-30T02:01:04.194Z,78.6
2017-07-30T02:02:04.943Z,78.9
2017-07-30T02:03:05.688Z,79.0
2017-07-30T02:04:06.421Z,78.9
2017-07-30T02:05:07.520Z,79.3
2017-07-30T02:06:08.261Z,79.0
2017-07-30T02:07:09.082Z,79.2
2017-07-30T02:08:09.823Z,79.6
2017-07-30T02:09:10.617Z,79.9
2017-07-30T02:10:11.448Z,79.4
2017-07-30T02:11:12.453Z,79.5
2017-07-30T02:12:13.251Z,79.4
2017-07-30T02:13:13.987Z,80.6
2017-07-30T02:14:14.736Z,79.6
2017-07-30T02:15:15.460Z,78.9
2017-07-30T02:16:16.496Z,79.5
2017-07-30T02:17:17.234Z,80.2
2017-07-30T02:18:17.969Z,80.4
2017-07-30T02:19:18.699Z,80.7
2017-07-30T02:20:19.445Z,80.7
2017-07-30T02:21:20.581Z,80.9
2017-07-30T02:22:21.404Z,81.3
2017-07-30T02:23:22.207Z,81.5
2017-07-30T02:24:22.942Z,81.7
2017-07-30T02:25:23.682Z,82.5
2017-07-30T02:26:25.305Z,82.6
2017-07-30T02:27:26.036Z,82.6
2017-07-30T02:28:26.773Z,82.4
2017-07-30T02:29:27.530Z,82.7
2017-07-30T02:30:28.334Z,83.8
2017-07-30T02:31:29.421Z,83.9
2017-07-30T02:32:30.157Z,83.6
2017-07-30T02:33:30.891Z,83.8
2017-07-30T02:34:31.630Z,83.6
2017-07-30T02:35:32.366Z,83.1
2017-07-30T02:36:33.448Z,83.2
2017-07-30T02:37:34.270Z,83.3
2017-07-30T02:38:35.004Z,83.7
2017-07-30T02:39:35.741Z,84.8
2017-07-30T02:40:36.484Z,82.3
2017-07-30T02:41:37.577Z,80.7
2017-07-30T02:42:38.319Z,81.8
2017-07-30T02:43:39.136Z,80.9
2017-07-30T02:44:39.908Z,81.1
2017-07-30T02:45:40.664Z,80.9
2017-07-30T02:46:41.857Z,82.1
2017-07-30T02:47:42.615Z,81.7
2017-07-30T02:48:43.398Z,81.7
2017-07-30T02:49:44.140Z,82.7
2017-07-30T02:50:44.952Z,82.1
2017-07-30T02:51:45.968Z,81.1
2017-07-30T02:52:46.709Z,80.9
2017-07-30T02:53:47.491Z,81.3
2017-07-30T02:54:48.229Z,80.8
2017-07-30T02:55:49.023Z,80.9
2017-07-30T02:56:50.107Z,80.4
2017-07-30T02:57:50.847Z,80.6
2017-07-30T02:58:51.597Z,80.3
2017-07-30T02:59:52.341Z,80.8
2017-07-30T03:00:53.080Z,80.9
2017-07-30T03:01:54.419Z,80.2
2017-07-30T03:02:55.220Z,80.5
2017-07-30T03:03:56.006Z,80.5
2017-07-30T03:04:56.762Z,79.7
2017-07-30T03:05:57.570Z,79.8
2017-07-30T03:06:58.695Z,79.8
2017-07-30T03:07:59.488Z,79.7
2017-07-30T03:09:00.237Z,79.8
2017-07-30T03:10:00.981Z,80.4
2017-07-30T03:11:01.725Z,79.5
2017-07-30T03:12:02.700Z,79.8
2017-07-30T03:13:03.445Z,79.8
2017-07-30T03:14:04.272Z,80.6
2017-07-30T03:15:05.091Z,80.1
2017-07-30T03:16:05.830Z,80.0
2017-07-30T03:17:07.006Z,80.4
2017-07-30T03:18:07.822Z,81.1
2017-07-30T03:19:08.545Z,82.0
2017-07-30T03:20:09.279Z,82.2
2017-07-30T03:21:10.014Z,82.7
2017-07-30T03:22:11.097Z,82.8
2017-07-30T03:23:11.837Z,83.4
2017-07-30T03:24:12.596Z,84.3
2017-07-30T03:25:13.412Z,85.2
2017-07-30T03:26:14.218Z,84.9
2017-07-30T03:27:15.198Z,84.9
2017-07-30T03:28:15.947Z,86.0
2017-07-30T03:29:16.678Z,86.1
2017-07-30T03:30:17.426Z,86.5
2017-07-30T03:31:18.239Z,86.3
2017-07-30T03:32:19.283Z,86.4
2017-07-30T03:33:20.019Z,86.5
2017-07-30T03:34:20.770Z,85.6
2017-07-30T03:35:21.558Z,86.5
2017-07-30T03:36:22.298Z,87.2
2017-07-30T03:37:23.420Z,86.4
2017-07-30T03:38:24.219Z,86.6
2017-07-30T03:39:24.950Z,87.4
2017-07-30T03:40:25.701Z,87.4
2017-07-30T03:41:26.442Z,87.1
2017-07-30T03:42:27.378Z,87.2
2017-07-30T03:43:28.118Z,87.0
2017-07-30T03:44:29.394Z,88.1
2017-07-30T03:45:30.211Z,88.3
2017-07-30T03:46:32.445Z,88.3
2017-07-30T03:47:34.196Z,88.0
2017-07-30T03:48:36.427Z,88.2
2017-07-30T03:49:36.968Z,88.7
2017-07-30T03:50:38.166Z,88.1
2017-07-30T03:51:38.990Z,89.1
2017-07-30T03:52:40.787Z,87.7
2017-07-30T03:53:41.889Z,87.7
2017-07-30T03:54:42.697Z,88.0
2017-07-30T03:55:43.451Z,88.0
2017-07-30T03:56:44.258Z,88.3
2017-07-30T03:57:45.003Z,88.7
2017-07-30T03:58:45.827Z,89.0
2017-07-30T03:59:46.627Z,89.1
2017-07-30T04:00:47.386Z,89.2
2017-07-30T04:01:48.122Z,89.4
2017-07-30T04:02:48.867Z,89.2
2017-07-30T04:03:49.809Z,87.5
2017-07-30T04:04:50.629Z,87.3
2017-07-30T04:05:51.371Z,88.0
2017-07-30T04:06:52.182Z,88.0
2017-07-30T04:07:52.908Z,88.2
2017-07-30T04:08:53.945Z,88.4
2017-07-30T04:09:55.456Z,88.1
2017-07-30T04:10:56.155Z,88.4
2017-07-30T04:11:56.952Z,88.5
2017-07-30T04:12:57.702Z,88.3
2017-07-30T04:13:58.637Z,88.1
2017-07-30T04:14:59.388Z,88.0
2017-07-30T04:16:00.204Z,87.6
2017-07-30T04:17:00.946Z,88.0
2017-07-30T04:18:01.688Z,88.0
2017-07-30T04:19:02.729Z,87.7
2017-07-30T04:20:03.473Z,87.2
2017-07-30T04:21:04.303Z,88.1
2017-07-30T04:22:05.097Z,87.9
2017-07-30T04:23:05.837Z,88.1
2017-07-30T04:24:06.873Z,88.1
2017-07-30T04:25:07.604Z,87.5
2017-07-30T04:26:08.346Z,88.3
2017-07-30T04:27:09.094Z,88.4
2017-07-30T04:28:09.913Z,88.0
2017-07-30T04:29:10.848Z,89.0
2017-07-30T04:30:11.592Z,88.7
2017-07-30T04:31:12.334Z,88.2
2017-07-30T04:32:13.142Z,88.2
2017-07-30T04:33:13.893Z,88.2
2017-07-30T04:34:14.985Z,88.1
2017-07-30T04:35:15.741Z,87.5
2017-07-30T04:36:16.482Z,88.2
2017-07-30T04:37:17.210Z,89.3
2017-07-30T04:38:17.960Z,89.9
2017-07-30T04:39:19.133Z,88.4
2017-07-30T04:40:19.930Z,88.2
2017-07-30T04:41:20.661Z,88.2
2017-07-30T04:42:21.462Z,88.0
2017-07-30T04:43:22.275Z,89.3
2017-07-30T04:44:23.478Z,90.7
2017-07-30T04:45:24.220Z,90.0
2017-07-30T04:46:25.032Z,88.5
2017-07-30T04:47:25.779Z,89.2
2017-07-30T04:48:26.622Z,88.5
2017-07-30T04:49:27.767Z,91.0
2017-07-30T04:50:28.552Z,93.9
2017-07-30T04:51:29.293Z,94.5
2017-07-30T04:52:30.027Z,96.4
2017-07-30T04:53:30.772Z,95.8
2017-07-30T04:54:31.991Z,95.8
2017-07-30T04:55:32.746Z,96.4
2017-07-30T04:56:33.572Z,98.5
2017-07-30T04:57:34.309Z,100.0
2017-07-30T04:58:35.045Z,100.0
2017-07-30T04:59:36.094Z,100.0
2017-07-30T05:00:36.819Z,100.0
2017-07-30T05:01:37.618Z,100.0
2017-07-30T05:02:38.360Z,100.0
2017-07-30T05:03:39.105Z,100.0
2017-07-30T05:04:40.250Z,100.0
2017-07-30T05:05:40.987Z,100.0
2017-07-30T05:06:41.744Z,100.0
2017-07-30T05:07:42.555Z,100.0
2017-07-30T05:08:43.358Z,100.0
2017-07-30T05:09:44.447Z,100.0
2017-07-30T05:10:45.206Z,100.0
2017-07-30T05:11:45.945Z,100.0
2017-07-30T05:12:46.809Z,100.0
2017-07-30T05:13:47.522Z,100.0
2017-07-30T05:14:48.238Z,100.0
2017-07-30T05:15:49.181Z,100.0
2017-07-30T05:16:50.011Z,100.0
2017-07-30T05:17:50.751Z,100.0
2017-07-30T05:18:51.510Z,100.0
2017-07-30T05:19:52.243Z,100.0
2017-07-30T05:20:52.997Z,100.0
2017-07-30T05:21:53.830Z,100.0
2017-07-30T05:22:54.568Z,100.0
2017-07-30T05:23:55.311Z,100.0
2017-07-30T05:24:56.059Z,100.0
2017-07-30T05:25:57.058Z,100.0
2017-07-30T05:26:57.814Z,100.0
2017-07-30T05:27:58.632Z,100.0
2017-07-30T05:28:59.369Z,100.0
2017-07-30T05:30:00.188Z,100.0
2017-07-30T05:31:01.183Z,100.0
2017-07-30T05:32:01.991Z,100.0
2017-07-30T05:33:02.729Z,100.0
2017-07-30T05:34:03.552Z,100.0
2017-07-30T05:35:04.302Z,100.0
2017-07-30T05:36:05.342Z,100.0
2017-07-30T05:37:06.181Z,100.0
2017-07-30T05:38:06.982Z,100.0
2017-07-30T05:39:07.791Z,100.0
2017-07-30T05:40:08.616Z,100.0
2017-07-30T05:41:09.781Z,100.0
2017-07-30T05:42:10.603Z,100.0
2017-07-30T05:43:11.417Z,100.0
2017-07-30T05:44:12.251Z,100.0
2017-07-30T05:45:13.003Z,100.0
2017-07-30T05:46:13.753Z,100.0
2017-07-30T05:47:14.948Z,100.0
2017-07-30T05:48:15.682Z,100.0
2017-07-30T05:49:16.431Z,100.0
2017-07-30T05:50:17.167Z,100.0
2017-07-30T05:51:17.915Z,100.0
2017-07-30T05:52:19.007Z,100.0
2017-07-30T05:53:19.754Z,100.0
2017-07-30T05:54:20.550Z,100.0
2017-07-30T05:55:21.360Z,100.0
2017-07-30T05:56:22.124Z,100.0
2017-07-30T05:57:22.932Z,99.4
2017-07-30T05:58:23.742Z,99.5
2017-07-30T05:59:24.500Z,98.7
2017-07-30T06:00:25.288Z,98.8
2017-07-30T06:01:26.027Z,97.9
2017-07-30T06:02:27.055Z,98.9
2017-07-30T06:03:27.764Z,98.5
2017-07-30T06:04:28.587Z,99.2
2017-07-30T06:05:29.383Z,99.0
2017-07-30T06:06:30.189Z,99.4
2017-07-30T06:07:31.237Z,99.4
2017-07-30T06:08:31.986Z,99.3
2017-07-30T06:09:32.727Z,97.3
2017-07-30T06:10:33.556Z,99.5
2017-07-30T06:11:34.302Z,99.1
2017-07-30T06:12:35.387Z,99.7
2017-07-30T06:13:36.134Z,99.6
2017-07-30T06:14:36.880Z,99.1
2017-07-30T06:15:37.617Z,95.3
2017-07-30T06:16:38.366Z,97.8
2017-07-30T06:17:39.308Z,99.4
2017-07-30T06:18:40.052Z,97.7
2017-07-30T06:19:40.791Z,96.0
2017-07-30T06:20:41.537Z,98.8
2017-07-30T06:21:42.291Z,98.7
2017-07-30T06:22:43.368Z,99.5
2017-07-30T06:23:44.128Z,100.0
2017-07-30T06:24:44.942Z,100.0
2017-07-30T06:25:45.682Z,100.0
2017-07-30T06:26:46.441Z,100.0
2017-07-30T06:27:47.528Z,99.9
2017-07-30T06:28:48.283Z,99.9
2017-07-30T06:29:49.032Z,99.1
2017-07-30T06:30:49.790Z,99.5
2017-07-30T06:31:50.591Z,98.9
2017-07-30T06:32:51.596Z,100.0
2017-07-30T06:33:52.386Z,99.6
2017-07-30T06:34:53.146Z,100.0
2017-07-30T06:35:53.933Z,98.0
2017-07-30T06:36:54.707Z,99.0
2017-07-30T06:37:55.511Z,99.1
2017-07-30T06:38:56.728Z,99.5
2017-07-30T06:39:57.481Z,100.0
2017-07-30T06:40:58.221Z,100.0
2017-07-30T06:41:58.978Z,100.0
2017-07-30T06:42:59.721Z,97.8
2017-07-30T06:44:00.742Z,98.4
2017-07-30T06:45:01.496Z,99.8
2017-07-30T06:46:02.288Z,99.8
2017-07-30T06:47:03.020Z,96.0
2017-07-30T06:48:03.711Z,93.6
2017-07-30T06:49:04.858Z,97.7
2017-07-30T06:50:05.599Z,92.0
2017-07-30T06:51:06.338Z,90.8
2017-07-30T06:52:07.074Z,91.8
2017-07-30T06:53:07.822Z,90.5
2017-07-30T06:54:08.961Z,89.8
2017-07-30T06:55:09.702Z,91.0
2017-07-30T06:56:10.451Z,89.6
2017-07-30T06:57:11.205Z,90.4
2017-07-30T06:58:12.031Z,90.2
2017-07-30T06:59:13.243Z,91.3
2017-07-30T07:00:14.042Z,93.0
2017-07-30T07:01:14.782Z,94.8
2017-07-30T07:02:15.535Z,94.0
2017-07-30T07:03:16.316Z,91.0
2017-07-30T07:04:17.403Z,91.1
2017-07-30T07:05:18.210Z,90.1
2017-07-30T07:06:18.951Z,89.3
2017-07-30T07:07:19.689Z,89.3
2017-07-30T07:08:20.438Z,88.3
2017-07-30T07:09:21.486Z,85.6
2017-07-30T07:10:22.317Z,85.7
2017-07-30T07:11:23.096Z,85.9
2017-07-30T07:12:23.834Z,83.9
2017-07-30T07:13:24.578Z,84.9
2017-07-30T07:14:25.729Z,87.2
2017-07-30T07:15:26.467Z,88.1
2017-07-30T07:16:27.216Z,86.8
2017-07-30T07:17:27.965Z,87.6
2017-07-30T07:18:28.792Z,86.6
2017-07-30T07:19:29.820Z,88.7
2017-07-30T07:20:30.571Z,85.7
2017-07-30T07:21:31.318Z,87.1
2017-07-30T07:22:32.131Z,81.6
2017-07-30T07:23:32.928Z,80.5
2017-07-30T07:24:33.870Z,80.3
2017-07-30T07:25:34.616Z,81.6
2017-07-30T07:26:35.361Z,80.9
2017-07-30T07:27:36.193Z,79.8
2017-07-30T07:28:37.013Z,79.0
2017-07-30T07:29:38.163Z,73.8
2017-07-30T07:30:38.961Z,74.5
2017-07-30T07:31:39.698Z,71.5
2017-07-30T07:32:40.508Z,68.5
2017-07-30T07:33:41.246Z,66.8
2017-07-30T07:34:42.337Z,67.1
2017-07-30T07:35:43.092Z,67.5
2017-07-30T07:36:43.903Z,68.2
2017-07-30T07:37:44.648Z,67.5
2017-07-30T07:38:45.462Z,66.3
2017-07-30T07:39:46.663Z,63.3
2017-07-30T07:40:47.403Z,63.9
2017-07-30T07:41:48.156Z,62.8
2017-07-30T07:42:48.951Z,63.1
2017-07-30T07:43:49.723Z,62.2
2017-07-30T07:44:50.914Z,62.8
2017-07-30T07:45:51.718Z,62.5
2017-07-30T07:46:52.474Z,61.9
2017-07-30T07:47:53.273Z,62.9
2017-07-30T07:48:54.107Z,62.1
2017-07-30T07:49:55.226Z,62.5
2017-07-30T07:50:56.033Z,60.8
2017-07-30T07:51:56.819Z,62.5
2017-07-30T07:52:57.567Z,62.4
2017-07-30T07:53:58.321Z,61.0
2017-07-30T07:54:59.368Z,60.9
2017-07-30T07:56:00.121Z,59.5
2017-07-30T07:57:00.867Z,61.9
2017-07-30T07:58:01.678Z,62.0
2017-07-30T07:59:02.420Z,62.3
2017-07-30T08:00:03.471Z,61.9
2017-07-30T08:01:04.294Z,58.9
2017-07-30T08:02:05.038Z,59.2
2017-07-30T08:03:05.791Z,60.5
2017-07-30T08:04:06.536Z,60.3
2017-07-30T08:05:07.598Z,57.7
2017-07-30T08:06:08.417Z,58.7
2017-07-30T08:07:09.173Z,59.8
2017-07-30T08:08:09.984Z,59.9
2017-07-30T08:09:10.815Z,59.2
2017-07-30T08:10:11.965Z,60.6
2017-07-30T08:11:12.761Z,57.0
2017-07-30T08:12:13.501Z,57.2
2017-07-30T08:13:14.290Z,58.1
2017-07-30T08:14:15.040Z,58.9
2017-07-30T08:15:15.871Z,57.6
2017-07-30T08:16:16.971Z,57.8
2017-07-30T08:17:17.789Z,56.7
2017-07-30T08:18:18.626Z,55.7
2017-07-30T08:19:19.371Z,55.0
2017-07-30T08:20:20.190Z,56.3
2017-07-30T08:21:21.286Z,57.2
2017-07-30T08:22:22.050Z,58.7
2017-07-30T08:23:22.841Z,58.0
2017-07-30T08:24:23.591Z,57.1
2017-07-30T08:25:24.410Z,56.6
2017-07-30T08:26:25.231Z,59.8
2017-07-30T08:27:26.056Z,58.2
2017-07-30T08:28:26.907Z,56.6
2017-07-30T08:29:27.632Z,57.4
2017-07-30T08:30:28.437Z,55.1
2017-07-30T08:31:29.438Z,56.1
2017-07-30T08:32:30.192Z,58.4
2017-07-30T08:33:30.988Z,54.3
2017-07-30T08:34:31.742Z,56.0
2017-07-30T08:35:32.553Z,56.8
2017-07-30T08:36:33.792Z,57.2
2017-07-30T08:37:34.539Z,56.6
2017-07-30T08:38:35.303Z,53.8
2017-07-30T08:39:36.099Z,54.5
2017-07-30T08:40:36.932Z,55.0
2017-07-30T08:41:37.681Z,54.4
2017-07-30T08:42:38.429Z,57.5
2017-07-30T08:43:39.246Z,55.0
2017-07-30T08:44:39.994Z,56.7
2017-07-30T08:45:40.808Z,57.5
2017-07-30T08:46:41.753Z,57.3
2017-07-30T08:47:42.569Z,55.8
2017-07-30T08:48:43.331Z,54.5
2017-07-30T08:49:44.132Z,52.5
2017-07-30T08:50:44.865Z,51.4
2017-07-30T08:51:46.009Z,54.7
2017-07-30T08:52:46.758Z,53.9
2017-07-30T08:53:47.511Z,51.8
2017-07-30T08:54:48.262Z,50.7
2017-07-30T08:55:49.013Z,52.3
2017-07-30T08:56:50.006Z,53.0
2017-07-30T08:57:50.781Z,50.6
2017-07-30T08:58:51.569Z,51.0
2017-07-30T08:59:52.325Z,48.8
2017-07-30T09:00:53.079Z,49.0
2017-07-30T09:01:54.239Z,52.3
2017-07-30T09:02:54.992Z,51.2
2017-07-30T09:03:55.836Z,50.4
2017-07-30T09:04:56.618Z,52.5
2017-07-30T09:05:57.374Z,50.7
2017-07-30T09:06:58.409Z,50.2
2017-07-30T09:07:59.237Z,51.9
2017-07-30T09:08:59.990Z,54.2
2017-07-30T09:10:00.782Z,50.5
2017-07-30T09:11:01.529Z,52.9
2017-07-30T09:12:02.599Z,48.6
2017-07-30T09:13:03.412Z,51.5
2017-07-30T09:14:04.217Z,52.6
2017-07-30T09:15:04.963Z,50.5
2017-07-30T09:16:05.700Z,49.6
2017-07-30T09:17:06.825Z,50.6
2017-07-30T09:18:07.579Z,47.4
2017-07-30T09:19:08.327Z,48.9
2017-07-30T09:20:09.070Z,49.2
2017-07-30T09:21:09.893Z,47.3
2017-07-30T09:22:10.998Z,48.2
2017-07-30T09:23:11.745Z,50.5
2017-07-30T09:24:12.490Z,49.6
2017-07-30T09:25:13.334Z,46.2
2017-07-30T09:26:14.115Z,49.0
2017-07-30T09:27:15.524Z,47.5
2017-07-30T09:28:16.262Z,47.9
2017-07-30T09:29:17.011Z,49.6
2017-07-30T09:30:17.751Z,51.4
2017-07-30T09:31:18.497Z,52.6
2017-07-30T09:32:19.602Z,51.2
2017-07-30T09:33:20.356Z,51.4
2017-07-30T09:34:21.100Z,51.3
2017-07-30T09:35:21.852Z,52.0
2017-07-30T09:36:22.599Z,53.8
2017-07-30T09:37:23.647Z,52.4
2017-07-30T09:38:24.402Z,54.2
2017-07-30T09:39:25.138Z,55.4
2017-07-30T09:40:25.892Z,55.0
2017-07-30T09:41:26.644Z,53.2
2017-07-30T09:42:27.809Z,51.6
2017-07-30T09:43:28.625Z,51.5
2017-07-30T09:44:29.372Z,52.7
2017-07-30T09:45:30.115Z,51.9
2017-07-30T09:46:30.863Z,51.9
2017-07-30T09:47:31.613Z,51.7
2017-07-30T09:48:32.350Z,50.3
2017-07-30T09:49:33.555Z,52.6
2017-07-30T09:50:34.373Z,50.5
2017-07-30T09:51:35.168Z,52.4
2017-07-30T09:52:35.924Z,53.9
2017-07-30T09:53:36.762Z,54.1
2017-07-30T09:54:37.908Z,54.1
2017-07-30T09:55:38.665Z,55.0
2017-07-30T09:56:39.480Z,55.4
2017-07-30T09:57:40.319Z,57.1
2017-07-30T09:58:41.111Z,56.5
2017-07-30T09:59:42.320Z,56.6
2017-07-30T10:00:43.056Z,55.9
2017-07-30T10:01:43.802Z,55.3
2017-07-30T10:02:44.631Z,55.9
2017-07-30T10:03:45.356Z,57.8
2017-07-30T10:04:46.466Z,57.0
2017-07-30T10:05:47.277Z,57.1
2017-07-30T10:06:48.047Z,56.8
2017-07-30T10:07:48.867Z,57.1
2017-07-30T10:08:49.611Z,57.8
2017-07-30T10:09:50.714Z,57.1
2017-07-30T10:10:51.471Z,56.3
2017-07-30T10:11:52.207Z,56.2
2017-07-30T10:12:52.971Z,56.5
2017-07-30T10:13:53.714Z,55.8
2017-07-30T10:14:54.881Z,52.5
2017-07-30T10:15:55.685Z,54.0
2017-07-30T10:16:56.794Z,51.5
2017-07-30T10:17:57.541Z,54.3
2017-07-30T10:18:58.318Z,52.6
2017-07-30T10:19:59.051Z,50.3
2017-07-30T10:20:59.784Z,51.3
2017-07-30T10:22:00.906Z,50.1
2017-07-30T10:23:01.667Z,48.3
2017-07-30T10:24:02.440Z,48.6
2017-07-30T10:25:03.232Z,47.3
2017-07-30T10:26:04.063Z,49.6
2017-07-30T10:27:05.201Z,47.4
2017-07-30T10:28:06.049Z,46.5
2017-07-30T10:29:06.863Z,46.7
2017-07-30T10:30:07.726Z,45.6
2017-07-30T10:31:08.548Z,49.6
2017-07-30T10:32:09.573Z,46.1
2017-07-30T10:33:10.319Z,45.7
2017-07-30T10:34:11.087Z,45.1
2017-07-30T10:35:11.881Z,45.6
2017-07-30T10:36:12.626Z,45.6
2017-07-30T10:37:13.616Z,46.5
2017-07-30T10:38:14.444Z,47.0
2017-07-30T10:39:15.269Z,43.8
2017-07-30T10:40:16.462Z,43.5
2017-07-30T10:41:17.207Z,43.1
2017-07-30T10:42:18.298Z,45.2
2017-07-30T10:43:19.130Z,45.0
2017-07-30T10:44:19.874Z,44.8
2017-07-30T10:45:20.714Z,43.3
2017-07-30T10:46:21.468Z,42.6
2017-07-30T10:47:22.286Z,41.1
2017-07-30T10:48:23.103Z,42.8
2017-07-30T10:49:23.929Z,43.1
2017-07-30T10:50:24.767Z,41.2
2017-07-30T10:51:25.509Z,40.3
2017-07-30T10:52:26.321Z,39.2
2017-07-30T10:53:27.073Z,39.3
2017-07-30T10:54:27.973Z,40.4
2017-07-30T10:55:28.845Z,39.6
2017-07-30T10:56:30.796Z,39.9
2017-07-30T10:57:32.472Z,40.7
2017-07-30T10:58:33.623Z,41.2
2017-07-30T10:59:35.486Z,39.2
2017-07-30T11:00:36.924Z,40.0
2017-07-30T11:01:38.784Z,38.0
2017-07-30T11:02:39.729Z,38.6
2017-07-30T11:03:40.586Z,41.5
2017-07-30T11:04:41.827Z,39.7
2017-07-30T11:05:42.991Z,39.0
2017-07-30T11:06:44.382Z,38.7
2017-07-30T11:07:46.007Z,39.4
2017-07-30T11:08:46.991Z,39.4
2017-07-30T11:09:47.857Z,38.9
2017-07-30T11:10:48.710Z,38.4
2017-07-30T11:11:49.892Z,38.8
2017-07-30T11:12:50.710Z,37.2
2017-07-30T11:13:51.452Z,36.7
2017-07-30T11:14:52.278Z,38.0
2017-07-30T11:15:53.075Z,39.4
2017-07-30T11:16:54.070Z,40.5
2017-07-30T11:17:54.816Z,41.6
2017-07-30T11:18:55.571Z,40.2
2017-07-30T11:19:56.329Z,39.9
2017-07-30T11:20:57.146Z,40.9
2017-07-30T11:21:58.296Z,40.7
2017-07-30T11:22:59.103Z,39.3
2017-07-30T11:23:59.952Z,40.0
2017-07-30T11:25:00.700Z,39.6
2017-07-30T11:26:01.466Z,40.9
2017-07-30T11:27:02.550Z,41.0
2017-07-30T11:28:03.378Z,40.4
2017-07-30T11:29:04.219Z,41.9
2017-07-30T11:30:05.021Z,41.2
2017-07-30T11:31:05.748Z,39.9
2017-07-30T11:32:06.798Z,42.0
2017-07-30T11:33:07.595Z,42.9
2017-07-30T11:34:08.361Z,42.9
2017-07-30T11:35:09.215Z,43.1
2017-07-30T11:36:10.040Z,44.5
2017-07-30T11:37:11.221Z,45.8
2017-07-30T11:38:11.975Z,46.2
2017-07-30T11:39:12.799Z,46.6
2017-07-30T11:40:13.560Z,47.4
2017-07-30T11:41:14.370Z,46.9
2017-07-30T11:42:15.229Z,45.8
2017-07-30T11:43:16.030Z,46.3
2017-07-30T11:44:16.871Z,45.6
2017-07-30T11:45:18.268Z,47.2
2017-07-30T11:46:19.007Z,45.9
2017-07-30T11:47:20.107Z,43.7
2017-07-30T11:48:20.931Z,41.4
2017-07-30T11:49:21.689Z,40.1
2017-07-30T11:50:22.492Z,40.8
2017-07-30T11:51:23.250Z,39.9
2017-07-30T11:52:24.431Z,39.8
2017-07-30T11:53:25.172Z,39.1
2017-07-30T11:54:25.930Z,39.8
2017-07-30T11:55:26.779Z,40.9
2017-07-30T11:56:27.607Z,39.8
2017-07-30T11:57:28.669Z,39.0
2017-07-30T11:58:29.568Z,40.6
2017-07-30T11:59:30.366Z,43.4
2017-07-30T12:00:31.121Z,43.5
2017-07-30T12:01:31.882Z,44.8
2017-07-30T12:02:33.061Z,44.5
2017-07-30T12:03:33.823Z,43.9
2017-07-30T12:04:34.641Z,42.1
2017-07-30T12:05:35.434Z,42.2
2017-07-30T12:06:36.260Z,38.9
2017-07-30T12:07:37.391Z,40.7
2017-07-30T12:08:38.193Z,38.7
2017-07-30T12:09:39.006Z,39.2
2017-07-30T12:10:39.755Z,37.1
2017-07-30T12:11:40.560Z,37.8
2017-07-30T12:12:41.317Z,37.5
2017-07-30T12:13:42.059Z,37.5
2017-07-30T12:14:42.871Z,36.9
2017-07-30T12:15:43.642Z,35.9
2017-07-30T12:16:44.471Z,36.8
2017-07-30T12:17:45.296Z,37.5
2017-07-30T12:18:46.394Z,35.8
2017-07-30T12:19:47.226Z,36.3
2017-07-30T12:20:47.990Z,38.5
2017-07-30T12:21:48.766Z,36.5
2017-07-30T12:22:49.602Z,35.8
2017-07-30T12:23:50.891Z,34.6
2017-07-30T12:24:51.723Z,36.2
2017-07-30T12:25:52.584Z,36.5
2017-07-30T12:26:53.323Z,39.7
2017-07-30T12:27:54.158Z,39.6
2017-07-30T12:28:55.380Z,39.7
2017-07-30T12:29:56.212Z,41.6
2017-07-30T12:30:57.041Z,41.6
2017-07-30T12:31:57.781Z,41.5
2017-07-30T12:32:58.611Z,43.0
2017-07-30T12:33:59.463Z,42.5
2017-07-30T12:35:00.290Z,42.9
2017-07-30T12:36:01.140Z,44.1
2017-07-30T12:37:01.964Z,42.4
2017-07-30T12:38:02.811Z,44.4
2017-07-30T12:39:03.646Z,44.5
2017-07-30T12:40:04.432Z,45.1
2017-07-30T12:41:05.306Z,45.6
2017-07-30T12:42:06.122Z,45.8
2017-07-30T12:43:06.845Z,44.0
2017-07-30T12:44:07.990Z,44.9
2017-07-30T12:45:08.823Z,43.9
2017-07-30T12:46:09.564Z,44.4
2017-07-30T12:47:10.423Z,42.9
2017-07-30T12:48:11.251Z,40.8
2017-07-30T12:49:12.435Z,40.5
2017-07-30T12:50:13.258Z,39.8
2017-07-30T12:51:14.070Z,39.7
2017-07-30T12:52:14.820Z,37.4
2017-07-30T12:53:15.666Z,36.6
2017-07-30T12:54:16.753Z,35.8
2017-07-30T12:55:18.449Z,36.6
2017-07-30T12:56:19.176Z,36.3
2017-07-30T12:57:20.006Z,37.1
2017-07-30T12:58:20.836Z,37.7
2017-07-30T12:59:22.003Z,39.3
2017-07-30T13:00:22.801Z,39.6
2017-07-30T13:01:23.621Z,38.1
2017-07-30T13:02:24.362Z,37.1
2017-07-30T13:03:25.211Z,36.2
2017-07-30T13:04:26.334Z,36.5
2017-07-30T13:05:27.159Z,36.5
2017-07-30T13:06:27.914Z,35.6
2017-07-30T13:07:28.757Z,36.3
2017-07-30T13:08:29.512Z,35.8
2017-07-30T13:09:30.790Z,36.6
2017-07-30T13:10:31.557Z,37.2
2017-07-30T13:11:32.390Z,38.3
2017-07-30T13:12:33.224Z,38.6
2017-07-30T13:13:34.051Z,38.2
2017-07-30T13:14:35.144Z,37.5
2017-07-30T13:15:36.196Z,40.1
2017-07-30T13:16:37.038Z,40.3
2017-07-30T13:17:37.887Z,38.5
2017-07-30T13:18:38.712Z,38.9
2017-07-30T13:19:40.052Z,39.8
2017-07-30T13:20:40.845Z,39.2
2017-07-30T13:21:41.700Z,38.9
2017-07-30T13:22:42.445Z,39.7
2017-07-30T13:23:43.315Z,39.4
2017-07-30T13:24:44.508Z,38.2
2017-07-30T13:25:45.494Z,39.1
2017-07-30T13:26:46.262Z,39.6
2017-07-30T13:27:47.801Z,38.6